createdAt,value
2023-02-09T00:01:28.170Z,151.90
2023-02-09T00:03:56.599Z,152.33
2023-02-09T00:06:24.793Z,150.97
2023-02-09T00:08:53.165Z,152.33
2023-02-09T00:11:49.584Z,147.70
2023-02-09T00:14:21.524Z,142.97
2023-02-09T00:16:51.287Z,145.57
2023-02-09T00:19:20.518Z,145.93
2023-02-09T00:21:48.733Z,158.50
2023-02-09T00:24:17.195Z,152.67
2023-02-09T00:26:45.329Z,146.77
2023-02-09T00:29:13.637Z,155.10
2023-02-09T00:31:42.607Z,151.57
2023-02-09T00:34:11.199Z,150.70
2023-02-09T00:36:38.942Z,146.77
2023-02-09T00:39:07.750Z,153.53
2023-02-09T00:41:55.097Z,146.47
2023-02-09T00:44:23.113Z,156.93
2023-02-09T00:46:52.511Z,154.00
2023-02-09T00:49:20.620Z,150.27
2023-02-09T00:51:48.304Z,170.43
2023-02-09T00:54:17.162Z,155.83
2023-02-09T00:56:46.723Z,158.93
2023-02-09T00:59:14.752Z,150.20
2023-02-09T01:01:42.686Z,158.63
2023-02-09T01:04:10.781Z,160.20
2023-02-09T01:06:38.707Z,160.60
2023-02-09T01:09:06.796Z,145.87
2023-02-09T01:11:34.630Z,154.70
2023-02-09T01:14:04.501Z,145.67
2023-02-09T01:16:32.582Z,146.37
2023-02-09T01:19:01.967Z,153.67
2023-02-09T01:21:30.700Z,148.73
2023-02-09T01:23:58.966Z,143.80
2023-02-09T01:26:26.722Z,143.03
2023-02-09T01:28:54.766Z,142.27
2023-02-09T01:31:28.539Z,142.33
2023-02-09T01:33:59.403Z,140.73
2023-02-09T01:36:28.314Z,144.10
2023-02-09T01:38:56.986Z,137.63
2023-02-09T01:41:25.360Z,133.40
2023-02-09T01:44:02.414Z,133.67
2023-02-09T01:46:33.216Z,134.80
2023-02-09T01:49:02.833Z,144.37
2023-02-09T01:51:34.186Z,145.27
2023-02-09T01:54:06.575Z,137.23
2023-02-09T01:56:34.753Z,135.53
2023-02-09T01:59:02.618Z,141.73
2023-02-09T02:01:31.075Z,138.57
2023-02-09T02:03:58.986Z,138.70
2023-02-09T02:06:27.087Z,144.60
2023-02-09T02:09:12.084Z,133.97
2023-02-09T02:11:42.698Z,144.00
2023-02-09T02:14:35.160Z,136.17
2023-02-09T02:17:03.230Z,123.90
2023-02-09T02:19:43.058Z,139.17
2023-02-09T02:22:19.857Z,126.03
2023-02-09T02:24:47.759Z,126.97
2023-02-09T02:27:24.125Z,129.03
2023-02-09T02:30:04.105Z,126.87
2023-02-09T02:32:47.550Z,120.70
2023-02-09T02:35:26.757Z,117.73
2023-02-09T02:38:11.625Z,123.87
2023-02-09T02:40:57.765Z,122.50
2023-02-09T02:43:49.774Z,122.13
2023-02-09T02:46:17.766Z,123.17
2023-02-09T02:49:16.168Z,121.63
2023-02-09T02:51:47.111Z,121.97
2023-02-09T02:54:38.571Z,129.83
2023-02-09T02:57:19.041Z,119.87
2023-02-09T02:59:53.675Z,126.83
2023-02-09T03:02:26.470Z,121.90
2023-02-09T03:04:56.960Z,121.30
2023-02-09T03:07:24.833Z,125.53
2023-02-09T03:09:57.533Z,133.10
2023-02-09T03:13:13.066Z,121.50
2023-02-09T03:15:41.165Z,124.87
2023-02-09T03:18:26.551Z,117.03
2023-02-09T03:21:04.999Z,122.80
2023-02-09T03:23:41.860Z,114.20
2023-02-09T03:26:27.207Z,114.17
2023-02-09T03:28:58.318Z,109.67
2023-02-09T03:31:28.218Z,105.93
2023-02-09T03:34:00.039Z,107.57
2023-02-09T03:36:34.732Z,114.27
2023-02-09T03:39:03.099Z,110.17
2023-02-09T03:41:31.320Z,107.37
2023-02-09T03:44:17.572Z,119.83
2023-02-09T03:46:45.704Z,117.83
2023-02-09T03:49:16.217Z,124.17
2023-02-09T03:51:44.390Z,122.40
2023-02-09T03:54:12.214Z,118.93
2023-02-09T03:56:40.375Z,113.60
2023-02-09T03:59:08.283Z,115.73
2023-02-09T04:01:36.536Z,118.63
2023-02-09T04:04:04.844Z,128.53
2023-02-09T04:06:33.815Z,108.83
2023-02-09T04:09:01.715Z,125.13
2023-02-09T04:11:29.776Z,114.23
2023-02-09T04:13:57.663Z,121.60
2023-02-09T04:16:25.326Z,133.50
2023-02-09T04:18:53.231Z,136.63
2023-02-09T04:21:21.436Z,122.87
2023-02-09T04:23:50.949Z,133.50
2023-02-09T04:26:19.056Z,136.60
2023-02-09T04:28:47.015Z,122.77
2023-02-09T04:31:15.480Z,122.43
2023-02-09T04:33:43.661Z,124.13
2023-02-09T04:36:11.802Z,135.80
2023-02-09T04:38:39.589Z,134.07
2023-02-09T04:41:07.320Z,143.97
2023-02-09T04:43:35.111Z,146.53
2023-02-09T04:46:03.178Z,131.03
2023-02-09T04:48:30.698Z,127.83
2023-02-09T04:50:58.714Z,128.47
2023-02-09T04:53:26.764Z,136.20
2023-02-09T04:55:54.804Z,135.97
2023-02-09T04:58:41.139Z,125.67
2023-02-09T05:01:11.860Z,128.70
2023-02-09T05:03:39.645Z,134.20
2023-02-09T05:06:07.706Z,129.87
2023-02-09T05:08:35.066Z,132.87
2023-02-09T05:11:02.874Z,130.93
2023-02-09T05:13:30.761Z,131.30
2023-02-09T05:15:58.487Z,138.90
2023-02-09T05:18:26.456Z,134.23
2023-02-09T05:20:54.098Z,145.03
2023-02-09T05:23:21.854Z,143.50
2023-02-09T05:25:49.464Z,162.50
2023-02-09T05:28:17.092Z,148.10
2023-02-09T05:30:45.161Z,139.27
2023-02-09T05:33:12.574Z,147.13
2023-02-09T05:35:40.165Z,139.67
2023-02-09T05:38:07.653Z,135.73
2023-02-09T05:40:35.196Z,147.57
2023-02-09T05:43:03.713Z,141.30
2023-02-09T05:45:31.478Z,153.47
2023-02-09T05:47:58.830Z,151.60
2023-02-09T05:50:26.449Z,135.20
2023-02-09T05:52:56.616Z,134.70
2023-02-09T05:55:24.107Z,141.00
2023-02-09T05:57:51.506Z,140.67
2023-02-09T06:00:20.172Z,148.80
2023-02-09T06:02:47.939Z,151.97
2023-02-09T06:05:15.837Z,155.80
2023-02-09T06:07:43.604Z,173.87
2023-02-09T06:10:11.371Z,204.03
2023-02-09T06:12:41.083Z,191.93
2023-02-09T06:15:10.586Z,179.80
2023-02-09T06:17:38.436Z,175.20
2023-02-09T06:20:06.607Z,172.90
2023-02-09T06:22:34.446Z,171.83
2023-02-09T06:25:02.192Z,173.23
2023-02-09T06:27:29.577Z,159.73
2023-02-09T06:29:57.375Z,153.90
2023-02-09T06:32:24.660Z,156.70
2023-02-09T06:34:52.322Z,154.60
2023-02-09T06:37:19.611Z,147.20
2023-02-09T06:39:47.276Z,142.23
2023-02-09T06:42:14.554Z,144.77
2023-02-09T06:44:42.181Z,139.87
2023-02-09T06:47:09.467Z,137.03
2023-02-09T06:49:37.534Z,142.90
2023-02-09T06:52:05.598Z,138.17
2023-02-09T06:54:33.256Z,152.67
2023-02-09T06:57:01.138Z,140.90
2023-02-09T06:59:29.106Z,133.93
2023-02-09T07:01:56.463Z,145.47
2023-02-09T07:04:24.141Z,153.70
2023-02-09T07:06:51.394Z,144.83
2023-02-09T07:09:19.057Z,142.13
2023-02-09T07:11:46.455Z,137.60
2023-02-09T07:14:14.177Z,136.33
2023-02-09T07:16:41.836Z,132.63
2023-02-09T07:19:09.695Z,132.20
2023-02-09T07:21:37.103Z,121.53
2023-02-09T07:24:05.169Z,130.53
2023-02-09T07:26:32.720Z,123.93
2023-02-09T07:29:01.456Z,127.17
2023-02-09T07:31:29.543Z,124.33
2023-02-09T07:33:58.478Z,125.83
2023-02-09T07:36:26.236Z,119.43
2023-02-09T07:38:56.056Z,115.53
2023-02-09T07:41:25.536Z,116.10
2023-02-09T07:43:54.102Z,118.10
2023-02-09T07:46:22.958Z,118.13
2023-02-09T07:48:51.330Z,126.10
2023-02-09T07:51:20.706Z,118.70
2023-02-09T07:53:48.401Z,116.17
2023-02-09T07:56:16.426Z,114.20
2023-02-09T07:58:44.802Z,121.07
2023-02-09T08:01:13.494Z,116.23
2023-02-09T08:03:44.787Z,132.87
2023-02-09T08:06:42.507Z,126.40
2023-02-09T08:09:12.839Z,135.87
2023-02-09T08:12:03.105Z,122.57
2023-02-09T08:14:43.202Z,117.50
2023-02-09T08:17:20.645Z,113.13
2023-02-09T08:19:54.501Z,125.57
2023-02-09T08:22:25.360Z,120.40
2023-02-09T08:24:53.563Z,110.33
2023-02-09T08:27:21.276Z,107.70
2023-02-09T08:29:50.051Z,116.53
2023-02-09T08:32:17.967Z,112.60
2023-02-09T08:34:46.433Z,104.70
2023-02-09T08:37:14.349Z,112.60
2023-02-09T08:39:42.756Z,111.13
2023-02-09T08:42:10.428Z,117.43
2023-02-09T08:44:39.730Z,121.00
2023-02-09T08:47:09.332Z,110.53
2023-02-09T08:49:37.889Z,122.47
2023-02-09T08:52:08.640Z,114.43
2023-02-09T08:54:37.242Z,106.03
2023-02-09T08:57:05.967Z,116.07
2023-02-09T08:59:34.432Z,118.77
2023-02-09T09:02:02.518Z,126.97
2023-02-09T09:04:30.701Z,100.73
2023-02-09T09:06:58.496Z,95.57
2023-02-09T09:09:26.511Z,93.40
2023-02-09T09:11:54.179Z,102.50
2023-02-09T09:14:22.403Z,88.10
2023-02-09T09:16:50.173Z,80.20
2023-02-09T09:19:18.211Z,78.43
2023-02-09T09:21:45.881Z,73.17
2023-02-09T09:24:13.984Z,84.03
2023-02-09T09:26:41.761Z,75.70
2023-02-09T09:29:10.777Z,82.50
2023-02-09T09:31:38.581Z,74.03
2023-02-09T09:34:06.843Z,75.47
2023-02-09T09:36:34.628Z,82.57
2023-02-09T09:39:02.701Z,78.13
2023-02-09T09:41:36.975Z,81.60
2023-02-09T09:44:19.087Z,90.10
2023-02-09T09:46:50.289Z,85.80
2023-02-09T09:49:26.558Z,88.90
2023-02-09T09:52:02.349Z,89.70
2023-02-09T09:54:32.625Z,94.63
2023-02-09T09:57:00.473Z,92.67
2023-02-09T09:59:38.671Z,86.37
2023-02-09T10:02:39.443Z,84.10
2023-02-09T10:05:23.760Z,90.07
2023-02-09T10:08:05.473Z,96.73
2023-02-09T10:10:51.916Z,95.87
2023-02-09T10:13:32.334Z,79.87
2023-02-09T10:16:00.568Z,79.00
2023-02-09T10:18:30.206Z,83.73
2023-02-09T10:21:08.930Z,84.80
2023-02-09T10:23:43.779Z,80.87
2023-02-09T10:26:19.632Z,81.70
2023-02-09T10:28:56.743Z,78.60
2023-02-09T10:31:25.474Z,78.60
2023-02-09T10:34:02.600Z,79.30
2023-02-09T10:36:49.024Z,82.13
2023-02-09T10:39:33.996Z,78.67
2023-02-09T10:42:17.101Z,71.27
2023-02-09T10:44:56.761Z,75.57
2023-02-09T10:47:31.405Z,81.10
2023-02-09T10:50:18.124Z,88.87
2023-02-09T10:52:58.342Z,89.83
2023-02-09T10:55:38.253Z,86.10
2023-02-09T10:58:10.390Z,93.40
2023-02-09T11:01:09.294Z,90.90
2023-02-09T11:03:56.987Z,88.73
2023-02-09T11:06:25.895Z,90.33
2023-02-09T11:09:13.882Z,92.17
2023-02-09T11:11:46.818Z,86.83
2023-02-09T11:14:19.590Z,94.00
2023-02-09T11:17:04.260Z,92.93
2023-02-09T11:19:33.670Z,90.27
2023-02-09T11:22:05.078Z,87.87
2023-02-09T11:24:45.356Z,82.40
2023-02-09T11:27:19.643Z,81.33
2023-02-09T11:29:48.539Z,80.83
2023-02-09T11:32:40.529Z,84.53
2023-02-09T11:35:14.475Z,85.90
2023-02-09T11:37:54.241Z,85.67
2023-02-09T11:40:44.373Z,88.13
2023-02-09T11:43:19.480Z,94.93
2023-02-09T11:45:56.094Z,88.77
2023-02-09T11:48:41.783Z,86.57
2023-02-09T11:51:20.622Z,95.53
2023-02-09T11:54:09.009Z,89.23
2023-02-09T11:56:44.724Z,88.80
2023-02-09T11:59:32.923Z,95.03
2023-02-09T12:02:25.250Z,88.20
2023-02-09T12:05:02.846Z,84.93
2023-02-09T12:07:52.194Z,86.60
2023-02-09T12:10:37.697Z,86.07
2023-02-09T12:13:25.124Z,83.33
2023-02-09T12:16:00.840Z,85.90
2023-02-09T12:18:33.406Z,85.43
2023-02-09T12:21:05.837Z,76.60
2023-02-09T12:23:44.254Z,73.93
2023-02-09T12:26:12.162Z,79.73
2023-02-09T12:29:17.000Z,69.90
2023-02-09T12:32:06.406Z,72.17
2023-02-09T12:34:49.847Z,66.00
2023-02-09T12:37:19.778Z,64.47
2023-02-09T12:40:06.514Z,66.45
2023-02-09T12:42:42.597Z,61.60
2023-02-09T12:45:29.004Z,65.13
2023-02-09T12:48:01.658Z,55.97
2023-02-09T12:50:51.725Z,53.92
2023-02-09T12:53:22.720Z,60.70
2023-02-09T12:56:09.545Z,55.90
2023-02-09T12:58:40.096Z,57.10
2023-02-09T13:01:08.447Z,55.40
2023-02-09T13:03:51.238Z,57.53
2023-02-09T13:06:37.582Z,57.15
2023-02-09T13:09:08.405Z,57.30
2023-02-09T13:11:51.798Z,57.30
2023-02-09T13:14:23.119Z,57.67
2023-02-09T13:17:02.966Z,60.88
2023-02-09T13:19:51.399Z,58.77
2023-02-09T13:22:31.478Z,63.37
2023-02-09T13:25:10.959Z,60.10
2023-02-09T13:27:49.309Z,62.20
2023-02-09T13:30:29.524Z,63.10
2023-02-09T13:33:08.705Z,64.20
2023-02-09T13:35:40.664Z,61.90
2023-02-09T13:38:22.045Z,65.57
2023-02-09T13:40:51.262Z,64.13
2023-02-09T13:43:25.379Z,65.97
2023-02-09T13:45:54.946Z,65.93
2023-02-09T13:48:24.586Z,58.57
2023-02-09T13:50:53.188Z,60.37
2023-02-09T13:53:24.437Z,62.27
2023-02-09T13:55:52.840Z,59.27
2023-02-09T13:58:22.912Z,63.10
2023-02-09T14:01:11.803Z,61.50
2023-02-09T14:03:57.096Z,62.20
2023-02-09T14:06:35.229Z,52.97
2023-02-09T14:09:04.658Z,59.03
2023-02-09T14:11:42.718Z,58.63
2023-02-09T14:14:16.654Z,54.17
2023-02-09T14:16:53.444Z,59.47
2023-02-09T14:19:27.887Z,55.70
2023-02-09T14:21:57.274Z,56.40
2023-02-09T14:24:27.029Z,52.57
2023-02-09T14:26:57.467Z,52.43
2023-02-09T14:29:34.219Z,56.47
2023-02-09T14:32:07.119Z,53.33
2023-02-09T14:34:36.531Z,51.83
2023-02-09T14:37:26.049Z,55.17
2023-02-09T14:39:56.993Z,51.00
2023-02-09T14:42:25.737Z,52.10
2023-02-09T14:45:23.989Z,56.10
2023-02-09T14:47:53.232Z,58.33
2023-02-09T14:50:24.080Z,60.60
2023-02-09T14:53:05.348Z,54.70
2023-02-09T14:55:40.482Z,58.23
2023-02-09T14:58:13.475Z,60.07
2023-02-09T15:00:42.153Z,61.63
2023-02-09T15:03:10.178Z,52.57
2023-02-09T15:05:39.303Z,60.77
2023-02-09T15:08:09.081Z,58.10
2023-02-09T15:10:39.188Z,63.83
2023-02-09T15:13:07.662Z,63.53
2023-02-09T15:15:37.919Z,59.37
2023-02-09T15:18:06.499Z,65.97
2023-02-09T15:20:35.175Z,61.13
2023-02-09T15:23:03.440Z,62.50
2023-02-09T15:25:32.597Z,61.87
2023-02-09T15:28:02.966Z,67.23
2023-02-09T15:30:33.907Z,61.47
2023-02-09T15:33:02.287Z,60.03
2023-02-09T15:35:31.090Z,60.73
2023-02-09T15:38:01.042Z,60.70
2023-02-09T15:40:51.656Z,63.63
2023-02-09T15:43:39.830Z,70.17
2023-02-09T15:46:27.623Z,63.83
2023-02-09T15:48:55.634Z,63.80
2023-02-09T15:51:25.350Z,62.37
2023-02-09T15:53:58.274Z,62.13
2023-02-09T15:56:26.370Z,64.77
2023-02-09T15:58:54.634Z,59.47
2023-02-09T16:01:22.692Z,60.40
2023-02-09T16:03:50.405Z,59.23
2023-02-09T16:06:24.858Z,63.87
2023-02-09T16:08:53.720Z,66.03
2023-02-09T16:11:24.154Z,66.90
2023-02-09T16:13:52.041Z,61.80
2023-02-09T16:16:20.596Z,81.03
2023-02-09T16:18:48.666Z,93.57
2023-02-09T16:21:19.995Z,128.73
2023-02-09T16:23:48.246Z,173.00
2023-02-09T16:26:16.790Z,207.57
2023-02-09T16:28:44.539Z,249.90
2023-02-09T16:31:12.615Z,232.20
2023-02-09T16:33:41.864Z,257.13
2023-02-09T16:36:18.355Z,278.57
2023-02-09T16:38:46.418Z,253.67
2023-02-09T16:41:34.737Z,233.33
2023-02-09T16:44:02.944Z,230.47
2023-02-09T16:46:31.664Z,240.03
2023-02-09T16:49:01.731Z,227.40
2023-02-09T16:51:29.850Z,241.03
2023-02-09T16:53:58.623Z,211.47
2023-02-09T16:56:27.673Z,110.37
2023-02-09T16:58:55.495Z,86.00
2023-02-09T17:01:24.316Z,83.87
2023-02-09T17:03:56.528Z,72.77
2023-02-09T17:06:27.749Z,68.47
2023-02-09T17:08:56.808Z,64.83
2023-02-09T17:11:27.483Z,62.13
2023-02-09T17:13:55.463Z,64.43
2023-02-09T17:16:31.650Z,66.47
2023-02-09T17:19:03.376Z,58.47
2023-02-09T17:21:35.618Z,57.07
2023-02-09T17:24:05.315Z,59.77
2023-02-09T17:26:36.648Z,61.23
2023-02-09T17:29:05.644Z,57.73
2023-02-09T17:31:50.869Z,58.33
2023-02-09T17:34:27.570Z,56.50
2023-02-09T17:36:58.852Z,58.83
2023-02-09T17:39:30.687Z,57.40
2023-02-09T17:42:01.476Z,55.83
2023-02-09T17:44:45.640Z,55.37
2023-02-09T17:47:19.271Z,59.33
2023-02-09T17:49:49.835Z,60.17
2023-02-09T17:52:21.186Z,53.63
2023-02-09T17:54:51.849Z,58.50
2023-02-09T17:57:22.078Z,56.17
2023-02-09T17:59:50.926Z,57.20
2023-02-09T18:02:20.910Z,60.43
2023-02-09T18:04:50.076Z,62.10
2023-02-09T18:07:21.865Z,77.73
2023-02-09T18:09:52.801Z,72.93
2023-02-09T18:12:25.682Z,65.33
2023-02-09T18:14:55.484Z,61.53
2023-02-09T18:17:25.269Z,57.93
2023-02-09T18:19:54.747Z,61.67
2023-02-09T18:22:29.160Z,56.07
2023-02-09T18:25:02.116Z,63.10
2023-02-09T18:27:32.379Z,60.17
2023-02-09T18:30:06.118Z,59.50
2023-02-09T18:32:36.366Z,57.23
2023-02-09T18:35:06.252Z,52.70
2023-02-09T18:37:35.508Z,52.93
2023-02-09T18:40:04.591Z,57.10
2023-02-09T18:42:33.753Z,67.63
2023-02-09T18:45:02.701Z,56.30
2023-02-09T18:47:33.635Z,60.50
2023-02-09T18:50:03.704Z,66.90
2023-02-09T18:52:35.229Z,55.70
2023-02-09T18:55:04.262Z,55.03
2023-02-09T18:57:34.292Z,58.67
2023-02-09T19:00:03.888Z,55.13
2023-02-09T19:02:33.861Z,58.33
2023-02-09T19:05:05.327Z,56.77
2023-02-09T19:07:36.687Z,53.23
2023-02-09T19:10:06.827Z,54.67
2023-02-09T19:12:35.727Z,54.10
2023-02-09T19:15:05.116Z,53.23
2023-02-09T19:17:34.676Z,51.20
2023-02-09T19:20:06.639Z,51.47
2023-02-09T19:22:36.454Z,53.13
2023-02-09T19:25:05.348Z,48.23
2023-02-09T19:27:35.131Z,52.23
2023-02-09T19:30:04.605Z,53.47
2023-02-09T19:32:34.139Z,52.27
2023-02-09T19:35:04.675Z,61.90
2023-02-09T19:37:33.769Z,64.60
2023-02-09T19:40:07.675Z,68.00
2023-02-09T19:42:37.447Z,53.17
2023-02-09T19:45:06.452Z,47.43
2023-02-09T19:47:35.838Z,48.67
2023-02-09T19:50:04.933Z,48.83
2023-02-09T19:52:37.768Z,48.13
2023-02-09T19:55:06.641Z,46.57
2023-02-09T19:57:35.276Z,48.90
2023-02-09T20:00:06.032Z,50.57
2023-02-09T20:02:38.285Z,50.87
2023-02-09T20:05:09.656Z,56.43
2023-02-09T20:07:39.092Z,64.27
2023-02-09T20:10:08.617Z,64.20
2023-02-09T20:12:38.700Z,51.20
2023-02-09T20:15:07.314Z,45.70
2023-02-09T20:17:36.830Z,56.03
2023-02-09T20:20:06.544Z,48.43
2023-02-09T20:22:35.667Z,45.23
2023-02-09T20:25:04.069Z,47.13
2023-02-09T20:27:33.023Z,48.50
2023-02-09T20:30:04.887Z,43.83
2023-02-09T20:32:33.408Z,48.13
2023-02-09T20:35:01.258Z,49.10
2023-02-09T20:37:30.408Z,43.87
2023-02-09T20:39:59.088Z,45.37
2023-02-09T20:42:46.520Z,49.50
2023-02-09T20:45:34.937Z,45.03
2023-02-09T20:48:05.855Z,46.27
2023-02-09T20:50:36.500Z,43.50
2023-02-09T20:53:05.876Z,47.10
2023-02-09T20:55:36.919Z,46.07
2023-02-09T20:58:07.508Z,44.30
2023-02-09T21:00:37.474Z,64.67
2023-02-09T21:03:08.265Z,55.47
2023-02-09T21:05:37.548Z,56.60
2023-02-09T21:08:09.909Z,45.90
2023-02-09T21:10:39.074Z,43.07
2023-02-09T21:13:10.496Z,45.47
2023-02-09T21:15:43.686Z,40.20
2023-02-09T21:18:14.954Z,38.53
2023-02-09T21:20:44.410Z,39.20
2023-02-09T21:23:16.185Z,41.20
2023-02-09T21:25:46.448Z,42.60
2023-02-09T21:28:16.489Z,42.07
2023-02-09T21:30:46.338Z,42.13
2023-02-09T21:33:16.272Z,48.57
2023-02-09T21:35:45.182Z,49.57
2023-02-09T21:38:14.306Z,45.10
2023-02-09T21:40:42.454Z,44.20
2023-02-09T21:43:12.183Z,45.43
2023-02-09T21:45:41.815Z,43.13
2023-02-09T21:48:14.580Z,44.73
2023-02-09T21:50:45.437Z,48.67
2023-02-09T21:53:14.181Z,49.23
2023-02-09T21:55:43.755Z,43.27
2023-02-09T21:58:13.676Z,43.07
2023-02-09T22:00:43.011Z,42.33
2023-02-09T22:03:13.028Z,41.13
2023-02-09T22:05:41.156Z,47.50
2023-02-09T22:08:09.637Z,43.20
2023-02-09T22:10:37.819Z,39.03
2023-02-09T22:13:09.024Z,44.40
2023-02-09T22:15:40.855Z,44.17
2023-02-09T22:18:09.697Z,43.57
2023-02-09T22:20:42.313Z,45.70
2023-02-09T22:23:11.256Z,42.70
2023-02-09T22:25:39.605Z,42.67
2023-02-09T22:28:07.969Z,37.77
2023-02-09T22:30:36.020Z,43.00
2023-02-09T22:33:04.604Z,43.13
2023-02-09T22:35:32.925Z,45.23
2023-02-09T22:38:01.199Z,43.07
2023-02-09T22:40:29.514Z,44.47
2023-02-09T22:42:57.902Z,43.23
2023-02-09T22:45:25.734Z,46.33
2023-02-09T22:47:53.855Z,42.70
2023-02-09T22:50:21.844Z,40.50
2023-02-09T22:52:49.997Z,42.80
2023-02-09T22:55:17.759Z,43.97
2023-02-09T22:57:45.815Z,45.30
2023-02-09T23:00:14.688Z,46.90
2023-02-09T23:02:42.726Z,48.03
2023-02-09T23:05:10.668Z,42.43
2023-02-09T23:07:38.838Z,45.83
2023-02-09T23:10:07.067Z,44.87
2023-02-09T23:12:34.760Z,43.77
2023-02-09T23:15:02.437Z,38.80
2023-02-09T23:17:30.505Z,46.20
2023-02-09T23:19:58.462Z,41.23
2023-02-09T23:22:26.620Z,40.43
2023-02-09T23:24:55.120Z,41.87
2023-02-09T23:27:23.108Z,38.57
2023-02-09T23:29:50.861Z,43.00
2023-02-09T23:32:18.862Z,47.23
2023-02-09T23:34:46.555Z,44.00
2023-02-09T23:37:19.124Z,39.33
2023-02-09T23:39:56.504Z,42.33
2023-02-09T23:42:24.591Z,40.30
2023-02-09T23:44:52.419Z,39.17
2023-02-09T23:47:20.409Z,41.50
2023-02-09T23:49:49.784Z,39.07
2023-02-09T23:52:17.804Z,35.33
2023-02-09T23:54:45.642Z,38.23
2023-02-09T23:57:13.747Z,43.10
2023-02-09T23:59:41.434Z,35.87
